Time;durP1;ratioP1;P1;durP2;ratioP2;P2;SDS_P1;SDS_P2;PMS_P1;PMS_P2;Temp;Humidity;BMP_temperature;BMP_pressure;BME280_temperature;BME280_humidity;BME280_pressure;Samples;Min_cycle;Max_cycle;Signal;HPM_P1;HPM_P2
2023/12/23 00:00:15;;;;;;;11.90;0.45;;;7.20;99.90;;;;;;4994780;28;20026;-93
2023/12/23 00:02:40;;;;;;;16.13;0.98;;;7.30;99.90;;;;;;4988915;28;20514;-94
2023/12/23 00:05:06;;;;;;;11.07;1.00;;;7.20;99.90;;;;;;5006211;28;20061;-92
2023/12/23 00:07:32;;;;;;;11.38;0.63;;;7.30;99.90;;;;;;4993050;28;20347;-93
2023/12/23 00:09:57;;;;;;;16.85;0.50;;;7.30;99.90;;;;;;4993721;28;20029;-94
2023/12/23 00:12:23;;;;;;;15.30;0.60;;;7.30;99.90;;;;;;4992724;28;20049;-93
2023/12/23 00:14:48;;;;;;;8.55;0.40;;;7.30;99.90;;;;;;4992573;28;20073;-93
2023/12/23 00:17:14;;;;;;;14.35;0.52;;;7.30;99.90;;;;;;4994545;28;20032;-93
2023/12/23 00:19:39;;;;;;;11.55;1.67;;;7.30;99.90;;;;;;5009705;28;20022;-93
2023/12/23 00:22:05;;;;;;;11.38;0.60;;;7.30;99.90;;;;;;4993286;28;20034;-95
2023/12/23 00:24:31;;;;;;;13.68;0.90;;;7.30;99.90;;;;;;4993944;28;20498;-93
2023/12/23 00:26:57;;;;;;;12.20;1.08;;;7.30;99.90;;;;;;4993227;28;20026;-93
2023/12/23 00:29:26;;;;;;;13.93;0.82;;;7.20;99.90;;;;;;4993887;28;20044;-93
2023/12/23 00:31:52;;;;;;;6.55;0.50;;;7.30;99.90;;;;;;4994149;28;20078;-94
2023/12/23 00:34:17;;;;;;;7.53;0.80;;;7.30;99.90;;;;;;4992305;28;20026;-93
2023/12/23 00:36:43;;;;;;;12.15;0.60;;;7.20;99.90;;;;;;4991054;28;20407;-94
2023/12/23 00:39:09;;;;;;;13.85;0.60;;;7.30;99.90;;;;;;4994534;28;20093;-94
2023/12/23 00:41:35;;;;;;;11.48;0.70;;;7.20;99.90;;;;;;4992539;28;20026;-93
2023/12/23 00:44:01;;;;;;;12.45;0.47;;;7.30;99.90;;;;;;4993238;28;20084;-92
2023/12/23 00:46:28;;;;;;;13.52;0.68;;;7.30;99.90;;;;;;5008566;28;20046;-94
2023/12/23 00:48:54;;;;;;;12.95;0.60;;;7.30;99.90;;;;;;4993449;28;20023;-95
2023/12/23 00:51:20;;;;;;;14.02;1.00;;;7.30;99.90;;;;;;4992766;28;20030;-94
2023/12/23 00:53:45;;;;;;;12.75;0.50;;;7.30;99.90;;;;;;4990939;28;20033;-93
2023/12/23 00:56:11;;;;;;;18.83;0.90;;;7.40;99.90;;;;;;4986026;28;20038;-92
2023/12/23 00:58:36;;;;;;;12.80;0.50;;;7.30;99.90;;;;;;4991179;28;20142;-94
2023/12/23 01:01:03;;;;;;;9.90;0.82;;;7.30;99.90;;;;;;5002916;28;20146;-93
2023/12/23 01:03:28;;;;;;;11.35;0.98;;;7.30;99.90;;;;;;4993438;28;20490;-94
2023/12/23 01:05:54;;;;;;;7.43;0.80;;;7.30;99.90;;;;;;4988986;28;20037;-91
2023/12/23 01:08:20;;;;;;;11.20;0.85;;;7.20;99.90;;;;;;4981478;28;20100;-94
2023/12/23 01:10:45;;;;;;;12.82;0.50;;;7.30;99.90;;;;;;4992232;28;20042;-94
2023/12/23 01:13:11;;;;;;;10.75;1.30;;;7.30;99.90;;;;;;4993063;28;20022;-94
2023/12/23 01:15:37;;;;;;;11.85;0.60;;;7.30;99.90;;;;;;4992299;28;20069;-93
2023/12/23 01:18:02;;;;;;;8.70;1.13;;;7.30;99.90;;;;;;5008749;28;20502;-93
2023/12/23 01:20:28;;;;;;;8.73;0.50;;;7.30;99.90;;;;;;4992094;28;20038;-93
2023/12/23 01:22:53;;;;;;;16.20;1.13;;;7.30;99.90;;;;;;4988045;28;20030;-93
2023/12/23 01:25:22;;;;;;;6.57;0.47;;;7.40;99.90;;;;;;4989732;28;20437;-93
2023/12/23 01:27:47;;;;;;;10.65;0.63;;;7.40;99.90;;;;;;4990705;28;20084;-93
2023/12/23 01:30:13;;;;;;;16.60;1.92;;;7.40;99.90;;;;;;4992409;28;20030;-95
2023/12/23 01:32:39;;;;;;;11.73;0.85;;;7.40;99.90;;;;;;5008640;28;20411;-93
2023/12/23 01:35:04;;;;;;;9.82;0.50;;;7.40;99.90;;;;;;4993821;28;20439;-93
2023/12/23 01:37:30;;;;;;;7.45;0.75;;;7.40;99.90;;;;;;4994609;28;20034;-92
2023/12/23 01:39:56;;;;;;;9.43;0.60;;;7.50;99.90;;;;;;4996218;28;20363;-93
2023/12/23 01:42:21;;;;;;;12.57;0.88;;;7.40;99.90;;;;;;4995855;28;20023;-95
2023/12/23 01:44:47;;;;;;;13.13;0.60;;;7.40;99.90;;;;;;4995396;28;20022;-92
2023/12/23 01:47:13;;;;;;;14.27;0.93;;;7.40;99.90;;;;;;4995287;28;20041;-92
2023/12/23 01:49:40;;;;;;;9.35;0.50;;;7.40;99.90;;;;;;5010858;28;20020;-93
2023/12/23 01:52:06;;;;;;;9.25;0.85;;;7.40;99.90;;;;;;5014588;28;20125;-95
2023/12/23 01:54:32;;;;;;;17.27;1.08;;;7.40;99.90;;;;;;4992482;28;20035;-93
2023/12/23 01:56:58;;;;;;;12.85;1.48;;;7.40;99.90;;;;;;4997376;28;20041;-93
2023/12/23 01:59:24;;;;;;;12.32;1.02;;;7.40;99.90;;;;;;4995470;28;20073;-93
2023/12/23 02:01:51;;;;;;;12.60;0.85;;;7.40;99.90;;;;;;4996398;28;20054;-93
2023/12/23 02:04:17;;;;;;;9.85;0.88;;;7.40;99.90;;;;;;4996069;28;20026;-93
2023/12/23 02:06:43;;;;;;;9.60;1.27;;;7.40;99.90;;;;;;5010107;28;20092;-93
2023/12/23 02:09:10;;;;;;;14.25;1.08;;;7.40;99.90;;;;;;4996304;28;20112;-93
2023/12/23 02:11:58;;;;;;;10.57;1.00;;;7.40;99.90;;;;;;4995268;28;20498;-94
2023/12/23 02:14:45;;;;;;;12.50;1.48;;;7.50;99.90;;;;;;4995195;28;20042;-93
2023/12/23 02:17:11;;;;;;;12.52;1.20;;;7.50;99.90;;;;;;4991171;28;20022;-94
2023/12/23 02:19:36;;;;;;;11.70;1.27;;;7.50;99.90;;;;;;4994200;28;20037;-94
2023/12/23 02:22:02;;;;;;;9.48;1.67;;;7.50;99.90;;;;;;4995177;28;20066;-93
2023/12/23 02:24:27;;;;;;;15.07;2.03;;;7.60;99.90;;;;;;4993924;28;20026;-92
2023/12/23 02:26:59;;;;;;;17.88;3.30;;;7.50;99.90;;;;;;4995005;28;20046;-92
2023/12/23 02:29:26;;;;;;;20.95;3.55;;;7.60;99.90;;;;;;4995303;28;20030;-90
2023/12/23 02:31:54;;;;;;;14.85;4.15;;;7.60;99.90;;;;;;4994881;28;20046;-92
2023/12/23 02:34:20;;;;;;;19.65;3.80;;;7.60;99.90;;;;;;4994674;28;20027;-92
2023/12/23 02:36:46;;;;;;;13.02;4.40;;;7.70;99.90;;;;;;4994694;28;20478;-92
2023/12/23 02:39:11;;;;;;;17.45;3.38;;;7.80;99.90;;;;;;4983893;28;20037;-92
2023/12/23 02:41:37;;;;;;;10.90;2.88;;;7.80;99.90;;;;;;4993457;28;20036;-94
2023/12/23 02:44:02;;;;;;;12.23;2.75;;;7.80;99.90;;;;;;5012538;28;20034;-94
2023/12/23 02:46:28;;;;;;;19.08;3.70;;;7.90;99.90;;;;;;4996150;28;20034;-94
2023/12/23 02:48:54;;;;;;;11.18;2.85;;;8.00;99.90;;;;;;4997718;28;20031;-94
2023/12/23 02:51:19;;;;;;;23.60;4.15;;;7.90;99.90;;;;;;4995051;28;20038;-95
2023/12/23 02:53:45;;;;;;;23.83;4.85;;;8.00;99.90;;;;;;4995425;28;20023;-94
2023/12/23 02:56:10;;;;;;;16.40;3.40;;;8.00;99.90;;;;;;4995406;28;20026;-93
2023/12/23 02:58:36;;;;;;;16.13;3.65;;;8.10;99.90;;;;;;4996523;28;20138;-95
2023/12/23 03:01:07;;;;;;;18.83;4.25;;;8.20;99.90;;;;;;4991838;28;20041;-94
2023/12/23 03:03:33;;;;;;;26.05;4.78;;;8.20;99.90;;;;;;4994713;28;20806;-94
2023/12/23 03:05:58;;;;;;;16.70;3.65;;;8.30;99.90;;;;;;5010556;28;20027;-93
2023/12/23 03:08:24;;;;;;;22.40;2.97;;;8.30;99.90;;;;;;4995042;28;20025;-93
2023/12/23 03:10:50;;;;;;;14.95;2.65;;;8.30;99.90;;;;;;4998315;28;20061;-95
2023/12/23 03:13:16;;;;;;;17.45;2.22;;;8.40;99.90;;;;;;4996152;28;20026;-95
2023/12/23 03:15:42;;;;;;;12.70;2.15;;;8.40;99.90;;;;;;4992075;28;20037;-94
2023/12/23 03:18:07;;;;;;;18.75;2.30;;;8.40;99.90;;;;;;4995458;28;20049;-93
2023/12/23 03:20:33;;;;;;;17.38;1.85;;;8.30;99.90;;;;;;4995530;28;20060;-95
2023/12/23 03:22:58;;;;;;;23.95;3.05;;;8.40;99.90;;;;;;4996214;28;20423;-94
2023/12/23 03:25:24;;;;;;;12.05;1.75;;;8.40;99.90;;;;;;5011365;28;20068;-95
2023/12/23 03:27:50;;;;;;;17.73;2.92;;;8.40;99.90;;;;;;4999889;28;20025;-94
2023/12/23 03:30:16;;;;;;;20.05;1.83;;;8.40;99.90;;;;;;4993009;28;20030;-94
2023/12/23 03:32:41;;;;;;;24.50;2.28;;;8.40;99.90;;;;;;4995926;28;20053;-94
2023/12/23 03:35:07;;;;;;;18.52;1.92;;;8.40;99.90;;;;;;4996848;28;20030;-96
2023/12/23 03:37:33;;;;;;;17.90;1.63;;;8.40;99.90;;;;;;4995705;28;20045;-94
2023/12/23 03:39:58;;;;;;;16.15;2.17;;;8.40;99.90;;;;;;5012477;28;20027;-95
2023/12/23 03:42:24;;;;;;;17.38;2.15;;;8.50;99.90;;;;;;4997060;28;20109;-95
2023/12/23 03:44:50;;;;;;;15.90;1.73;;;8.40;99.90;;;;;;4995374;28;20023;-95
2023/12/23 03:47:15;;;;;;;17.85;1.42;;;8.40;99.90;;;;;;4994893;28;20037;-93
2023/12/23 03:49:42;;;;;;;14.50;1.33;;;8.50;99.90;;;;;;4996245;28;20041;-94
2023/12/23 03:52:07;;;;;;;16.45;1.20;;;8.50;99.90;;;;;;5008904;28;20031;-95
2023/12/23 03:54:34;;;;;;;15.90;2.15;;;8.60;99.90;;;;;;4997480;28;20046;-95
2023/12/23 03:57:00;;;;;;;20.90;2.03;;;8.70;99.90;;;;;;4996044;28;20030;-94
2023/12/23 03:59:25;;;;;;;22.67;2.25;;;8.70;99.90;;;;;;4995296;28;20033;-94
2023/12/23 04:01:51;;;;;;;18.63;1.63;;;8.70;99.90;;;;;;4995071;28;20022;-93
2023/12/23 04:04:17;;;;;;;16.60;1.30;;;8.80;99.90;;;;;;4993683;28;20463;-92
2023/12/23 04:06:43;;;;;;;14.38;1.33;;;8.80;99.90;;;;;;4995907;28;20047;-94
2023/12/23 04:09:10;;;;;;;15.45;1.70;;;8.80;99.90;;;;;;4996989;28;20031;-93
2023/12/23 04:11:38;;;;;;;22.23;1.65;;;8.90;99.90;;;;;;4995832;28;20065;-92
2023/12/23 04:14:04;;;;;;;11.13;1.63;;;8.90;99.90;;;;;;5004993;28;20030;-93
2023/12/23 04:16:30;;;;;;;15.05;1.38;;;8.90;99.90;;;;;;4998758;28;20490;-94
2023/12/23 04:18:55;;;;;;;14.80;1.77;;;9.00;99.90;;;;;;5015020;28;20065;-91
2023/12/23 04:21:21;;;;;;;19.75;1.95;;;8.90;99.90;;;;;;5001561;28;20030;-95
2023/12/23 04:23:46;;;;;;;10.60;1.02;;;8.90;99.90;;;;;;4994798;28;20022;-94
2023/12/23 04:26:14;;;;;;;20.63;1.60;;;8.90;99.90;;;;;;5012597;28;20026;-94
2023/12/23 04:28:40;;;;;;;24.27;2.25;;;8.90;99.90;;;;;;4997968;28;20441;-93
2023/12/23 04:31:06;;;;;;;23.52;1.55;;;9.00;99.90;;;;;;4993777;28;20034;-94
2023/12/23 04:33:34;;;;;;;16.48;2.22;;;9.00;99.90;;;;;;5013516;28;20497;-94
2023/12/23 04:36:00;;;;;;;20.92;2.03;;;9.00;99.90;;;;;;4996862;28;20030;-94
2023/12/23 04:38:25;;;;;;;19.10;1.40;;;9.00;99.90;;;;;;4998129;28;20018;-96
2023/12/23 04:40:51;;;;;;;14.98;1.08;;;9.00;99.90;;;;;;4999948;28;20022;-95
2023/12/23 04:43:17;;;;;;;18.00;1.75;;;9.00;99.90;;;;;;4999044;28;20098;-94
2023/12/23 04:45:42;;;;;;;9.77;1.13;;;9.00;99.90;;;;;;4996024;28;20069;-94
2023/12/23 04:48:08;;;;;;;17.85;1.10;;;9.00;99.90;;;;;;4997586;28;20033;-96
2023/12/23 04:50:33;;;;;;;13.68;1.13;;;9.00;99.90;;;;;;4993253;28;20043;-96
2023/12/23 04:52:59;;;;;;;15.18;1.85;;;8.90;99.90;;;;;;5001153;28;20053;-96
2023/12/23 04:55:25;;;;;;;14.68;1.17;;;9.00;99.90;;;;;;4997237;28;20030;-94
2023/12/23 04:57:51;;;;;;;12.65;1.20;;;9.00;99.90;;;;;;4999615;28;20379;-96
2023/12/23 05:00:16;;;;;;;15.77;2.08;;;9.00;99.90;;;;;;4994461;28;20125;-95
2023/12/23 05:02:42;;;;;;;15.00;2.20;;;9.00;99.90;;;;;;4994504;28;20105;-95
2023/12/23 05:05:08;;;;;;;16.77;1.30;;;9.00;99.90;;;;;;5008921;28;20030;-94
2023/12/23 05:07:34;;;;;;;13.02;1.50;;;9.00;99.90;;;;;;4992414;28;20034;-96
2023/12/23 05:09:59;;;;;;;11.18;0.90;;;9.00;99.90;;;;;;5001950;28;20046;-95
2023/12/23 05:12:25;;;;;;;15.52;1.58;;;9.10;99.90;;;;;;5007513;28;20038;-96
2023/12/23 05:14:51;;;;;;;12.38;1.25;;;9.10;99.90;;;;;;5003173;28;20065;-96
2023/12/23 05:17:17;;;;;;;11.35;0.80;;;9.10;99.90;;;;;;5004108;28;20030;-95
2023/12/23 05:19:42;;;;;;;17.52;0.93;;;9.10;99.90;;;;;;5000870;28;20092;-95
2023/12/23 05:22:08;;;;;;;14.27;0.90;;;9.10;99.90;;;;;;5001672;28;20030;-93
2023/12/23 05:24:37;;;;;;;12.90;1.95;;;9.10;99.90;;;;;;4999534;28;20102;-95
2023/12/23 05:27:06;;;;;;;23.77;1.63;;;9.10;99.90;;;;;;5007631;28;20459;-96
2023/12/23 05:29:31;;;;;;;18.80;1.73;;;9.10;99.90;;;;;;5016069;28;20491;-95
2023/12/23 05:31:57;;;;;;;15.23;0.90;;;9.20;99.90;;;;;;5017007;28;20133;-95
2023/12/23 05:34:23;;;;;;;8.95;0.77;;;9.10;99.90;;;;;;4999486;28;20482;-96
2023/12/23 05:36:49;;;;;;;11.30;1.10;;;9.20;99.90;;;;;;4997789;28;20061;-96
2023/12/23 05:39:14;;;;;;;14.90;1.00;;;9.20;99.90;;;;;;4999066;28;20077;-96
2023/12/23 05:41:40;;;;;;;11.98;1.05;;;9.10;99.90;;;;;;5000737;28;20026;-96
2023/12/23 05:44:07;;;;;;;12.52;1.05;;;9.10;99.90;;;;;;4997480;28;20026;-96
2023/12/23 05:46:34;;;;;;;10.52;0.95;;;9.30;99.90;;;;;;4996220;28;20063;-95
2023/12/23 05:49:23;;;;;;;15.23;1.52;;;9.20;99.90;;;;;;5016540;28;20023;-96
2023/12/23 05:51:48;;;;;;;22.40;1.20;;;9.10;99.90;;;;;;4999036;28;20042;-95
2023/12/23 05:54:14;;;;;;;12.13;0.93;;;9.10;99.90;;;;;;4996114;28;20101;-94
2023/12/23 05:56:39;;;;;;;19.80;1.58;;;9.10;99.90;;;;;;4997598;28;20030;-94
2023/12/23 05:59:05;;;;;;;16.33;1.00;;;9.00;99.90;;;;;;5000829;28;20026;-94
2023/12/23 06:01:31;;;;;;;9.48;0.80;;;9.00;99.90;;;;;;5001097;28;20087;-96
2023/12/23 06:03:56;;;;;;;20.70;1.58;;;8.90;99.90;;;;;;4998965;28;20065;-94
2023/12/23 06:06:22;;;;;;;10.43;1.15;;;8.80;99.90;;;;;;4994801;28;20057;-95
2023/12/23 06:08:47;;;;;;;16.65;1.10;;;8.80;99.90;;;;;;4994931;28;20026;-95
2023/12/23 06:11:13;;;;;;;12.82;0.73;;;8.80;99.90;;;;;;4998640;28;20056;-95
2023/12/23 06:13:40;;;;;;;13.82;1.23;;;8.70;99.90;;;;;;4997792;28;20077;-92
2023/12/23 06:16:06;;;;;;;15.90;1.10;;;8.70;99.90;;;;;;4996491;28;20123;-94
2023/12/23 06:18:33;;;;;;;13.90;1.35;;;8.70;99.90;;;;;;4996165;28;20030;-93
2023/12/23 06:20:59;;;;;;;14.70;0.98;;;8.70;99.90;;;;;;4996741;28;20030;-95
2023/12/23 06:23:25;;;;;;;15.30;1.40;;;8.60;99.90;;;;;;4991671;28;20022;-94
2023/12/23 06:25:50;;;;;;;12.55;1.10;;;8.60;99.90;;;;;;4997973;28;20049;-93
2023/12/23 06:28:16;;;;;;;14.65;3.15;;;8.60;99.90;;;;;;4999361;28;20018;-94
2023/12/23 06:30:42;;;;;;;18.27;2.03;;;8.50;99.90;;;;;;4995131;28;20506;-93
2023/12/23 06:33:07;;;;;;;12.88;1.58;;;8.60;99.90;;;;;;5002398;28;20047;-95
2023/12/23 06:35:33;;;;;;;14.23;1.17;;;8.50;99.90;;;;;;5003007;28;20034;-95
2023/12/23 06:37:59;;;;;;;12.63;1.17;;;8.60;99.90;;;;;;5003797;28;20023;-95
2023/12/23 06:40:27;;;;;;;20.45;1.58;;;8.60;99.90;;;;;;5005084;28;20026;-94
2023/12/23 06:42:52;;;;;;;12.02;1.20;;;8.60;99.90;;;;;;5006422;28;20030;-93
2023/12/23 06:45:18;;;;;;;17.02;1.88;;;8.50;99.90;;;;;;5016373;28;20056;-94
2023/12/23 06:47:44;;;;;;;23.02;2.85;;;8.60;99.90;;;;;;5013090;28;20030;-94
2023/12/23 06:50:09;;;;;;;13.15;2.33;;;8.60;99.90;;;;;;5003563;28;20479;-94
2023/12/23 06:52:35;;;;;;;15.77;2.05;;;8.60;99.90;;;;;;5008323;28;20022;-92
2023/12/23 06:55:00;;;;;;;16.88;1.67;;;8.50;99.90;;;;;;4998074;28;20098;-93
2023/12/23 06:57:26;;;;;;;17.27;1.20;;;8.60;99.90;;;;;;4999505;28;20035;-94
2023/12/23 06:59:52;;;;;;;18.55;2.00;;;8.50;99.90;;;;;;5000711;28;20030;-94
2023/12/23 07:02:17;;;;;;;11.90;1.92;;;8.60;99.90;;;;;;5000654;28;20390;-94
2023/12/23 07:04:43;;;;;;;12.00;1.67;;;8.60;99.90;;;;;;4997908;28;20042;-95
2023/12/23 07:07:10;;;;;;;20.75;1.83;;;8.60;99.90;;;;;;4997504;28;20046;-94
2023/12/23 07:09:35;;;;;;;16.35;1.52;;;8.60;99.90;;;;;;4994661;28;20026;-92
2023/12/23 07:12:01;;;;;;;10.82;1.00;;;8.60;99.90;;;;;;4993213;28;20061;-94
2023/12/23 07:14:27;;;;;;;20.02;1.40;;;8.60;99.90;;;;;;4995235;28;20105;-94
2023/12/23 07:16:52;;;;;;;19.65;2.03;;;8.60;99.90;;;;;;4997216;28;20026;-94
2023/12/23 07:19:18;;;;;;;20.00;2.17;;;8.70;99.90;;;;;;5011672;28;20113;-93
2023/12/23 07:21:44;;;;;;;19.60;1.60;;;8.70;99.90;;;;;;4994119;28;20050;-94
2023/12/23 07:24:10;;;;;;;19.10;1.55;;;8.70;99.90;;;;;;4992127;28;20061;-94
2023/12/23 07:26:36;;;;;;;12.73;1.27;;;8.80;99.90;;;;;;4990675;28;20031;-94
2023/12/23 07:29:02;;;;;;;19.10;1.88;;;8.80;99.90;;;;;;4975371;28;20065;-95
2023/12/23 07:31:32;;;;;;;20.02;1.38;;;8.90;99.90;;;;;;5005715;28;20061;-93
2023/12/23 07:34:00;;;;;;;13.63;1.65;;;8.90;99.90;;;;;;4982322;28;20031;-95
2023/12/23 07:36:26;;;;;;;14.40;1.40;;;9.00;99.90;;;;;;4993719;28;20055;-94
2023/12/23 07:38:52;;;;;;;16.98;2.53;;;9.00;99.90;;;;;;4991564;28;20552;-94
2023/12/23 07:41:17;;;;;;;14.18;1.15;;;9.10;99.90;;;;;;4995517;28;20418;-93
2023/12/23 07:43:43;;;;;;;9.30;1.33;;;9.10;99.90;;;;;;5011990;28;20029;-93
2023/12/23 07:46:09;;;;;;;10.82;1.25;;;9.10;99.90;;;;;;4998494;28;20022;-94
2023/12/23 07:48:34;;;;;;;15.80;1.73;;;9.10;99.90;;;;;;4980173;28;20104;-95
2023/12/23 07:51:07;;;;;;;14.48;1.85;;;9.10;99.90;;;;;;4989936;28;20045;-95
2023/12/23 07:53:33;;;;;;;11.85;1.20;;;9.20;99.90;;;;;;4992947;28;20034;-93
2023/12/23 07:55:58;;;;;;;13.98;1.38;;;9.20;99.90;;;;;;4995727;28;20034;-93
2023/12/23 07:58:24;;;;;;;16.48;1.23;;;9.20;99.90;;;;;;4996375;28;20065;-95
2023/12/23 08:00:50;;;;;;;14.50;1.23;;;9.20;99.90;;;;;;4994855;28;20034;-95
2023/12/23 08:03:16;;;;;;;14.98;1.70;;;9.30;99.90;;;;;;5013815;28;20074;-94
2023/12/23 08:05:41;;;;;;;16.90;1.02;;;9.30;99.90;;;;;;4995155;28;20029;-96
2023/12/23 08:08:09;;;;;;;15.73;1.30;;;9.40;99.90;;;;;;4996976;28;20719;-95
2023/12/23 08:10:35;;;;;;;12.65;1.00;;;9.30;99.90;;;;;;4990421;28;20034;-93
2023/12/23 08:13:01;;;;;;;10.25;0.90;;;9.40;99.90;;;;;;5007632;28;20038;-95
2023/12/23 08:15:27;;;;;;;7.45;1.70;;;9.40;99.90;;;;;;4979776;28;20034;-94
2023/12/23 08:17:53;;;;;;;15.70;1.27;;;9.40;99.90;;;;;;5008115;28;20027;-94
2023/12/23 08:20:18;;;;;;;12.30;1.13;;;9.40;99.90;;;;;;4996687;28;20030;-94
2023/12/23 08:22:44;;;;;;;10.90;0.93;;;9.40;99.90;;;;;;4996267;28;20042;-95
2023/12/23 08:25:10;;;;;;;8.05;0.63;;;9.50;99.90;;;;;;4997831;28;20486;-95
2023/12/23 08:27:39;;;;;;;13.20;1.55;;;9.40;99.90;;;;;;4996855;28;20394;-93
2023/12/23 08:30:08;;;;;;;14.07;1.00;;;9.50;99.90;;;;;;4995413;28;20022;-95
2023/12/23 08:32:35;;;;;;;9.85;1.25;;;9.50;99.90;;;;;;4997575;28;20077;-95
2023/12/23 08:35:01;;;;;;;10.43;0.70;;;9.50;99.90;;;;;;4986612;28;20078;-95
2023/12/23 08:37:27;;;;;;;10.88;0.65;;;9.50;99.90;;;;;;4993169;28;20043;-94
2023/12/23 08:39:53;;;;;;;17.77;1.00;;;9.60;99.90;;;;;;5010704;28;20137;-94
2023/12/23 08:42:20;;;;;;;17.80;0.90;;;9.60;99.90;;;;;;4995423;28;20026;-94
2023/12/23 08:44:47;;;;;;;8.70;0.70;;;9.60;99.90;;;;;;4984033;28;20066;-95
2023/12/23 08:47:15;;;;;;;11.93;0.90;;;9.60;99.90;;;;;;4991802;28;20090;-94
2023/12/23 08:49:41;;;;;;;7.60;0.70;;;9.60;99.90;;;;;;4993566;28;20026;-96
2023/12/23 08:52:07;;;;;;;15.65;2.50;;;9.70;99.90;;;;;;4993457;28;20034;-95
2023/12/23 08:54:33;;;;;;;15.65;1.08;;;9.70;99.90;;;;;;5010611;28;20184;-94
2023/12/23 08:56:58;;;;;;;13.93;0.60;;;9.70;99.90;;;;;;4990864;28;20059;-95
2023/12/23 08:59:24;;;;;;;8.07;0.68;;;9.70;99.90;;;;;;4983597;28;20034;-93
2023/12/23 09:01:50;;;;;;;11.55;0.98;;;9.70;99.90;;;;;;5007698;28;20058;-94
2023/12/23 09:04:17;;;;;;;8.68;0.70;;;9.70;99.90;;;;;;5000667;28;20011;-94
2023/12/23 09:06:43;;;;;;;7.30;0.93;;;9.70;99.90;;;;;;5003007;28;20034;-94
2023/12/23 09:09:09;;;;;;;9.55;0.70;;;9.80;99.90;;;;;;4996142;28;20049;-95
2023/12/23 09:11:42;;;;;;;10.05;0.60;;;9.70;99.90;;;;;;4995588;28;20061;-94
2023/12/23 09:14:09;;;;;;;9.65;0.70;;;9.80;99.90;;;;;;4997170;28;20023;-89
2023/12/23 09:16:35;;;;;;;9.18;0.80;;;9.80;99.90;;;;;;4993036;28;20091;-92
2023/12/23 09:19:03;;;;;;;9.48;0.63;;;9.80;99.90;;;;;;4997094;28;20046;-95
2023/12/23 09:21:29;;;;;;;10.38;0.68;;;9.80;99.90;;;;;;4979174;28;20034;-94
2023/12/23 09:23:54;;;;;;;9.85;0.50;;;9.80;99.90;;;;;;4999297;28;20073;-94
2023/12/23 09:26:20;;;;;;;8.30;0.50;;;9.80;99.90;;;;;;4992559;28;20041;-95
2023/12/23 09:28:46;;;;;;;12.98;0.90;;;9.80;99.90;;;;;;4989855;28;20069;-94
2023/12/23 09:31:12;;;;;;;9.70;0.85;;;9.80;99.90;;;;;;4991327;28;20034;-93
2023/12/23 09:33:39;;;;;;;10.98;0.77;;;9.80;99.90;;;;;;5013131;28;20125;-92
2023/12/23 09:36:05;;;;;;;9.25;0.68;;;9.80;99.90;;;;;;5009045;28;20057;-95
2023/12/23 09:38:31;;;;;;;10.30;0.88;;;9.70;99.90;;;;;;4982150;28;20022;-92
2023/12/23 09:40:57;;;;;;;11.60;0.60;;;9.80;99.90;;;;;;4991128;28;20027;-93
2023/12/23 09:43:24;;;;;;;6.70;0.60;;;9.80;99.90;;;;;;4990150;28;20023;-92
2023/12/23 09:45:51;;;;;;;7.85;0.73;;;9.80;99.90;;;;;;4993674;28;20121;-93
2023/12/23 09:48:17;;;;;;;11.55;0.70;;;9.80;99.90;;;;;;5003537;28;20033;-94
2023/12/23 09:50:44;;;;;;;9.00;0.70;;;9.80;99.90;;;;;;4993757;28;20125;-94
2023/12/23 09:53:13;;;;;;;13.18;0.90;;;9.80;99.90;;;;;;4993284;28;20045;-93
2023/12/23 09:55:40;;;;;;;11.32;1.13;;;9.80;99.90;;;;;;4982183;28;20038;-92
2023/12/23 09:58:06;;;;;;;9.95;1.08;;;9.80;99.90;;;;;;4996390;28;20435;-95
2023/12/23 10:00:32;;;;;;;9.85;0.95;;;9.90;99.90;;;;;;4997041;28;20018;-94
2023/12/23 10:02:59;;;;;;;7.63;0.85;;;9.90;99.90;;;;;;5012327;28;20186;-93
2023/12/23 10:05:29;;;;;;;12.45;1.35;;;9.90;99.90;;;;;;4996803;28;20037;-95
2023/12/23 10:07:59;;;;;;;12.90;0.80;;;9.90;99.90;;;;;;4996475;28;20037;-93
2023/12/23 10:10:31;;;;;;;6.05;0.65;;;9.90;99.90;;;;;;4997233;28;20030;-94
2023/12/23 10:12:56;;;;;;;8.15;0.65;;;10.00;99.90;;;;;;4997830;28;20029;-95
2023/12/23 10:15:22;;;;;;;10.98;0.85;;;10.00;99.90;;;;;;4995554;28;20030;-94
2023/12/23 10:17:47;;;;;;;9.57;1.17;;;10.00;99.90;;;;;;4984880;28;20398;-93
2023/12/23 10:20:13;;;;;;;9.90;1.00;;;10.00;99.90;;;;;;4995974;28;20026;-94
2023/12/23 10:22:45;;;;;;;9.55;0.60;;;10.00;99.90;;;;;;4997702;28;20112;-93
2023/12/23 10:25:12;;;;;;;6.60;0.60;;;10.10;99.90;;;;;;4994911;28;20027;-92
2023/12/23 10:27:41;;;;;;;9.80;1.00;;;10.00;99.90;;;;;;4998961;28;20552;-93
2023/12/23 10:30:12;;;;;;;8.98;0.80;;;10.00;99.90;;;;;;4993727;28;20027;-93
2023/12/23 10:32:39;;;;;;;8.85;0.85;;;10.10;99.90;;;;;;4989667;28;20050;-93
2023/12/23 10:35:13;;;;;;;5.38;0.55;;;10.10;99.90;;;;;;5002889;28;20540;-94
2023/12/23 10:37:40;;;;;;;14.38;1.65;;;10.10;99.90;;;;;;4987775;28;20030;-94
2023/12/23 10:40:23;;;;;;;6.20;0.70;;;10.10;99.90;;;;;;4995926;28;20490;-94
2023/12/23 10:42:50;;;;;;;13.55;0.90;;;10.10;99.90;;;;;;4996043;28;20421;-93
2023/12/23 10:45:17;;;;;;;9.02;1.05;;;10.20;99.90;;;;;;4996728;28;20030;-93
2023/12/23 10:47:43;;;;;;;16.58;1.30;;;10.20;99.90;;;;;;4995885;28;20096;-93
2023/12/23 10:50:10;;;;;;;6.43;0.50;;;10.20;99.90;;;;;;5009605;28;20094;-93
2023/12/23 10:52:36;;;;;;;8.95;0.60;;;10.30;99.90;;;;;;4993657;28;20030;-93
2023/12/23 10:55:05;;;;;;;10.60;1.48;;;10.30;99.90;;;;;;4993854;28;20030;-93
2023/12/23 10:57:32;;;;;;;8.57;0.60;;;10.30;99.90;;;;;;4978198;28;20045;-93
2023/12/23 10:59:58;;;;;;;12.30;0.93;;;10.40;99.90;;;;;;4991788;28;20026;-92
2023/12/23 11:02:31;;;;;;;15.15;1.13;;;10.40;99.90;;;;;;4991174;28;20081;-95
2023/12/23 11:04:59;;;;;;;8.77;0.57;;;10.40;99.90;;;;;;4989439;28;20033;-92
2023/12/23 11:07:30;;;;;;;9.55;0.60;;;10.40;99.90;;;;;;4995156;28;20037;-93
2023/12/23 11:10:01;;;;;;;7.75;0.50;;;10.40;99.90;;;;;;4990319;28;20035;-92
2023/12/23 11:12:29;;;;;;;8.32;0.57;;;10.40;99.90;;;;;;4990060;28;20089;-93
2023/12/23 11:14:54;;;;;;;9.43;0.43;;;10.50;99.90;;;;;;5014160;28;20113;-94
2023/12/23 11:17:25;;;;;;;4.45;0.40;;;10.50;99.90;;;;;;4993655;28;20066;-93
2023/12/23 11:19:54;;;;;;;8.10;0.50;;;10.50;99.90;;;;;;4987736;28;20030;-94
2023/12/23 11:22:24;;;;;;;8.48;0.55;;;10.50;99.90;;;;;;4997262;28;20026;-91
2023/12/23 11:24:51;;;;;;;8.50;0.98;;;10.60;99.90;;;;;;5014703;28;20038;-92
2023/12/23 11:27:34;;;;;;;6.68;0.50;;;10.60;99.90;;;;;;5017141;28;20026;-92
2023/12/23 11:30:10;;;;;;;9.90;0.52;;;10.60;99.90;;;;;;5006458;28;20027;-91
2023/12/23 11:32:41;;;;;;;6.15;0.75;;;10.60;99.90;;;;;;4993875;28;20081;-92
2023/12/23 11:35:12;;;;;;;5.68;0.52;;;10.60;99.90;;;;;;5014527;28;20045;-91
2023/12/23 11:37:49;;;;;;;3.17;0.25;;;10.70;99.90;;;;;;4989982;28;20034;-93
2023/12/23 11:40:16;;;;;;;4.82;0.40;;;10.70;99.90;;;;;;4997099;28;20029;-93
2023/12/23 11:42:43;;;;;;;6.80;0.73;;;10.70;99.90;;;;;;4994003;28;20053;-92
2023/12/23 11:45:11;;;;;;;6.95;0.45;;;10.80;99.90;;;;;;4993011;28;20034;-93
2023/12/23 11:47:37;;;;;;;9.13;0.93;;;10.80;99.90;;;;;;4999192;28;20026;-93
2023/12/23 11:50:03;;;;;;;7.88;0.50;;;10.80;99.90;;;;;;4998179;28;20674;-93
2023/12/23 11:52:30;;;;;;;6.20;0.40;;;10.90;99.90;;;;;;4997916;28;20046;-93
2023/12/23 11:54:55;;;;;;;4.68;0.50;;;10.90;99.90;;;;;;4993474;28;20085;-92
2023/12/23 11:57:22;;;;;;;9.45;0.45;;;10.90;99.90;;;;;;5012130;28;20022;-92
2023/12/23 11:59:49;;;;;;;8.48;0.50;;;10.90;99.90;;;;;;4993306;28;20048;-93
2023/12/23 12:02:15;;;;;;;7.70;0.70;;;10.90;99.90;;;;;;4997658;28;20030;-93
2023/12/23 12:04:41;;;;;;;7.35;0.93;;;10.90;99.90;;;;;;4993158;28;20057;-93
2023/12/23 12:07:06;;;;;;;4.85;0.40;;;10.90;99.90;;;;;;4989894;28;20130;-94
2023/12/23 12:09:32;;;;;;;6.95;0.60;;;10.90;99.90;;;;;;4992627;28;20031;-95
2023/12/23 12:11:59;;;;;;;8.85;0.45;;;10.90;99.90;;;;;;4982240;28;20038;-93
2023/12/23 12:14:29;;;;;;;8.18;0.50;;;10.90;99.90;;;;;;4996141;28;20083;-94
2023/12/23 12:16:56;;;;;;;4.90;0.38;;;10.90;99.90;;;;;;4993901;28;20033;-95
2023/12/23 12:19:21;;;;;;;11.57;0.60;;;10.90;99.90;;;;;;4998260;28;20113;-92
2023/12/23 12:21:47;;;;;;;7.25;0.40;;;11.00;99.90;;;;;;5000821;28;20053;-93
2023/12/23 12:24:13;;;;;;;5.70;0.68;;;10.90;99.90;;;;;;4996155;28;20125;-92
2023/12/23 12:26:39;;;;;;;7.20;1.02;;;10.90;99.90;;;;;;4997521;28;20034;-94
2023/12/23 12:29:05;;;;;;;6.05;0.35;;;10.90;99.90;;;;;;5013649;28;20034;-92
2023/12/23 12:31:31;;;;;;;7.75;0.82;;;10.90;99.90;;;;;;4993339;28;20145;-92
2023/12/23 12:33:58;;;;;;;10.27;1.48;;;10.90;99.90;;;;;;4997720;28;20030;-93
2023/12/23 12:36:24;;;;;;;8.30;0.60;;;10.90;99.90;;;;;;4992766;28;20889;-93
2023/12/23 12:38:50;;;;;;;7.22;0.50;;;10.90;99.90;;;;;;4992572;28;20031;-92
2023/12/23 12:41:20;;;;;;;6.35;0.40;;;10.90;99.90;;;;;;4997186;28;20041;-95
2023/12/23 12:43:46;;;;;;;3.45;0.43;;;10.90;99.90;;;;;;4985099;28;20029;-94